Time;durP1;ratioP1;P1;durP2;ratioP2;P2;SDS_P1;SDS_P2;PMS_P1;PMS_P2;Temp;Humidity;BMP_temperature;BMP_pressure;BME280_temperature;BME280_humidity;BME280_pressure;Samples;Min_cycle;Max_cycle;Signal;HPM_P1;HPM_P2
2023/10/11 00:00:33;;;;;;;;;;;13.30;87.10;;;;;;5002523;28;20360;-74
2023/10/11 00:03:14;;;;;;;;;;;13.30;87.10;;;;;;5003830;28;19929;-72
2023/10/11 00:05:47;;;;;;;;;;;13.30;87.20;;;;;;5002269;28;19933;-73
2023/10/11 00:08:25;;;;;;;;;;;13.30;87.10;;;;;;4994573;28;19930;-71
2023/10/11 00:11:00;;;;;;;;;;;13.30;87.10;;;;;;5004926;28;19933;-73
2023/10/11 00:13:39;;;;;;;;;;;13.30;87.10;;;;;;5003032;28;19949;-74
2023/10/11 00:16:21;;;;;;;;;;;13.30;87.10;;;;;;5003899;28;19929;-73
2023/10/11 00:18:55;;;;;;;;;;;13.20;87.10;;;;;;5001793;28;19960;-73
2023/10/11 00:21:40;;;;;;;;;;;13.30;87.00;;;;;;5002277;28;20314;-73
2023/10/11 00:24:17;;;;;;;;;;;13.20;87.00;;;;;;5004661;28;19972;-73
2023/10/11 00:26:56;;;;;;;;;;;13.20;87.20;;;;;;5002295;28;19933;-73
2023/10/11 00:29:30;;;;;;;;;;;13.20;87.20;;;;;;4993326;28;19930;-73
2023/10/11 00:32:04;;;;;;;;;;;13.20;87.20;;;;;;5002425;28;19933;-73
2023/10/11 00:34:37;;;;;;;;;;;13.20;87.20;;;;;;5004803;28;19926;-73
2023/10/11 00:37:11;;;;;;;;;;;13.20;87.20;;;;;;5004725;28;19926;-73
2023/10/11 00:39:46;;;;;;;;;;;13.20;87.20;;;;;;5022493;28;19937;-73
2023/10/11 00:42:13;;;;;;;;;;;13.10;87.20;;;;;;5022366;28;19932;-73
2023/10/11 00:44:48;;;;;;;;;;;13.10;87.10;;;;;;5019013;28;20020;-71
2023/10/11 00:47:22;;;;;;;;;;;13.10;87.00;;;;;;5021087;28;20051;-70
2023/10/11 00:49:50;;;;;;;;;;;13.10;86.80;;;;;;5022449;28;19937;-70
2023/10/11 00:52:27;;;;;;;;;;;13.00;86.90;;;;;;5021608;28;19940;-72
2023/10/11 00:55:08;;;;;;;;;;;13.00;86.90;;;;;;5023161;28;20564;-70
2023/10/11 00:57:42;;;;;;;;;;;12.90;86.80;;;;;;5020241;28;19935;-71
2023/10/11 01:00:16;;;;;;;;;;;12.90;86.80;;;;;;5007672;28;20369;-69
2023/10/11 01:02:52;;;;;;;;;;;12.80;86.80;;;;;;5020567;28;19929;-70
2023/10/11 01:05:26;;;;;;;;;;;12.90;86.80;;;;;;5019509;28;19925;-70
2023/10/11 01:07:54;;;;;;;;;;;12.80;86.70;;;;;;5022200;28;20387;-70
2023/10/11 01:10:29;;;;;;;;;;;12.80;86.80;;;;;;5020857;28;19937;-71
2023/10/11 01:13:02;;;;;;;;;;;12.80;86.70;;;;;;5021571;28;20368;-70
2023/10/11 01:15:35;;;;;;;;;;;12.80;86.70;;;;;;5021305;28;19925;-70
2023/10/11 01:18:08;;;;;;;;;;;12.70;86.70;;;;;;5021505;28;19931;-71
2023/10/11 01:20:43;;;;;;;;;;;12.70;86.70;;;;;;5000977;28;19976;-71
2023/10/11 01:23:23;;;;;;;;;;;12.70;86.70;;;;;;5022208;28;20388;-71
2023/10/11 01:25:56;;;;;;;;;;;12.70;86.70;;;;;;5021937;28;19929;-70
2023/10/11 01:28:29;;;;;;;;;;;12.60;86.80;;;;;;5021634;28;19939;-70
2023/10/11 01:31:08;;;;;;;;;;;12.60;86.80;;;;;;5022997;28;19925;-69
2023/10/11 01:33:49;;;;;;;;;;;12.60;86.90;;;;;;5019238;28;20343;-70
2023/10/11 01:36:23;;;;;;;;;;;12.60;86.90;;;;;;5021358;28;19929;-71
2023/10/11 01:39:01;;;;;;;;;;;12.60;87.00;;;;;;5021762;28;19932;-70
2023/10/11 01:41:36;;;;;;;;;;;12.60;87.10;;;;;;5018514;28;19925;-71
2023/10/11 01:44:11;;;;;;;;;;;12.60;87.00;;;;;;5020301;28;19926;-71
2023/10/11 01:46:47;;;;;;;;;;;12.60;87.00;;;;;;5021082;28;19932;-69
2023/10/11 01:49:20;;;;;;;;;;;12.60;87.00;;;;;;5021663;28;19925;-70
2023/10/11 01:51:54;;;;;;;;;;;12.50;87.00;;;;;;5019408;28;19925;-69
2023/10/11 01:54:28;;;;;;;;;;;12.60;86.90;;;;;;5002841;28;19965;-74
2023/10/11 01:57:04;;;;;;;;;;;12.60;86.90;;;;;;5021559;28;19975;-73
2023/10/11 01:59:37;;;;;;;;;;;12.50;87.10;;;;;;5010294;28;19929;-73
2023/10/11 02:02:10;;;;;;;;;;;12.50;87.10;;;;;;5019506;28;19933;-73
2023/10/11 02:04:40;;;;;;;;;;;12.50;87.20;;;;;;5020493;28;20051;-74
2023/10/11 02:07:14;;;;;;;;;;;12.60;87.30;;;;;;5021789;28;19952;-73
2023/10/11 02:09:48;;;;;;;;;;;12.50;87.40;;;;;;5019614;28;20016;-73
2023/10/11 02:12:22;;;;;;;;;;;12.60;87.40;;;;;;5019443;28;20477;-72
2023/10/11 02:14:55;;;;;;;;;;;12.60;87.40;;;;;;5021803;28;19929;-73
2023/10/11 02:17:33;;;;;;;;;;;12.60;87.30;;;;;;5019346;28;19936;-71
2023/10/11 02:20:16;;;;;;;;;;;12.60;87.30;;;;;;5019454;28;19979;-74
2023/10/11 02:22:53;;;;;;;;;;;12.60;87.30;;;;;;5020426;28;20293;-74
2023/10/11 02:25:26;;;;;;;;;;;12.60;87.40;;;;;;5019865;28;19929;-74
2023/10/11 02:28:00;;;;;;;;;;;12.60;87.50;;;;;;5020800;28;19936;-73
2023/10/11 02:30:38;;;;;;;;;;;12.60;87.60;;;;;;5020966;28;19929;-72
2023/10/11 02:33:11;;;;;;;;;;;12.60;87.60;;;;;;5024175;28;19987;-74
2023/10/11 02:35:53;;;;;;;;;;;12.60;87.60;;;;;;5019224;28;19926;-73
2023/10/11 02:38:28;;;;;;;;;;;12.60;87.60;;;;;;5022978;28;19929;-74
2023/10/11 02:41:03;;;;;;;;;;;12.60;87.70;;;;;;5025299;28;19932;-73
2023/10/11 02:43:47;;;;;;;;;;;12.60;87.70;;;;;;5020169;28;19925;-73
2023/10/11 02:46:23;;;;;;;;;;;12.60;87.70;;;;;;5024277;28;19937;-74
2023/10/11 02:49:05;;;;;;;;;;;12.60;87.80;;;;;;5024605;28;19964;-73
2023/10/11 02:51:51;;;;;;;;;;;12.60;87.90;;;;;;5023924;28;19925;-74
2023/10/11 02:54:34;;;;;;;;;;;12.60;87.90;;;;;;5023481;28;20031;-73
2023/10/11 02:57:07;;;;;;;;;;;12.60;87.80;;;;;;5023744;28;19965;-72
2023/10/11 02:59:44;;;;;;;;;;;12.50;87.80;;;;;;5023273;28;19940;-73
2023/10/11 03:02:17;;;;;;;;;;;12.50;87.80;;;;;;4989251;28;19984;-73
2023/10/11 03:04:51;;;;;;;;;;;12.50;87.70;;;;;;5004233;28;20387;-63
2023/10/11 03:07:26;;;;;;;;;;;12.50;87.60;;;;;;5003729;28;19926;-63
2023/10/11 03:10:00;;;;;;;;;;;12.40;87.60;;;;;;5012967;28;19930;-63
2023/10/11 03:12:38;;;;;;;;;;;12.40;87.60;;;;;;5022271;28;20372;-62
2023/10/11 03:15:12;;;;;;;;;;;12.40;87.40;;;;;;5023897;28;20027;-63
2023/10/11 03:17:46;;;;;;;;;;;12.40;87.30;;;;;;5023483;28;19926;-63
2023/10/11 03:20:25;;;;;;;;;;;12.40;87.30;;;;;;5023691;28;20369;-62
2023/10/11 03:23:03;;;;;;;;;;;12.40;87.40;;;;;;5021948;28;19929;-63
2023/10/11 03:25:38;;;;;;;;;;;12.30;87.40;;;;;;5014963;28;19929;-62
2023/10/11 03:28:14;;;;;;;;;;;12.30;87.30;;;;;;5014330;28;19929;-63
2023/10/11 03:30:50;;;;;;;;;;;12.30;87.20;;;;;;5023805;28;19932;-62
2023/10/11 03:33:23;;;;;;;;;;;12.30;87.20;;;;;;5022888;28;19926;-64
2023/10/11 03:35:56;;;;;;;;;;;12.20;87.20;;;;;;5023268;28;19932;-62
2023/10/11 03:38:33;;;;;;;;;;;12.20;87.10;;;;;;5014278;28;19926;-63
2023/10/11 03:41:14;;;;;;;;;;;12.20;87.00;;;;;;5024360;28;20371;-63
2023/10/11 03:43:54;;;;;;;;;;;12.20;87.00;;;;;;5014506;28;19933;-63
2023/10/11 03:46:34;;;;;;;;;;;12.20;87.00;;;;;;5021158;28;19937;-62
2023/10/11 03:52:19;;;;;;;;;;;12.10;86.90;;;;;;5024260;28;19926;-64
2023/10/11 03:55:01;;;;;;;;;;;12.20;86.70;;;;;;5004747;28;20312;-63
2023/10/11 03:57:41;;;;;;;;;;;12.20;86.60;;;;;;5022714;28;20567;-63
2023/10/11 04:00:25;;;;;;;;;;;12.20;86.50;;;;;;5022310;28;19984;-63
2023/10/11 04:03:03;;;;;;;;;;;12.10;86.60;;;;;;5021438;28;19935;-63
2023/10/11 04:05:40;;;;;;;;;;;12.10;86.80;;;;;;5022927;28;20020;-63
2023/10/11 04:08:11;;;;;;;;;;;12.20;86.70;;;;;;5022964;28;20304;-62
2023/10/11 04:10:49;;;;;;;;;;;12.10;86.60;;;;;;5022881;28;19925;-63
2023/10/11 04:13:26;;;;;;;;;;;12.10;86.70;;;;;;5023358;28;19994;-73
2023/10/11 04:16:00;;;;;;;;;;;12.10;86.60;;;;;;5023511;28;19936;-73
2023/10/11 04:18:37;;;;;;;;;;;12.10;86.70;;;;;;5022403;28;20385;-74
2023/10/11 04:21:26;;;;;;;;;;;12.00;86.70;;;;;;5023374;28;19926;-73
2023/10/11 04:23:59;;;;;;;;;;;12.00;86.70;;;;;;5021650;28;19933;-73
2023/10/11 04:26:36;;;;;;;;;;;11.90;86.80;;;;;;5021421;28;19940;-73
2023/10/11 04:29:17;;;;;;;;;;;11.90;86.90;;;;;;5022274;28;19925;-74
2023/10/11 04:32:09;;;;;;;;;;;11.90;86.80;;;;;;5013943;28;19929;-73
2023/10/11 04:34:48;;;;;;;;;;;11.90;86.80;;;;;;5022123;28;19999;-73
2023/10/11 04:37:28;;;;;;;;;;;11.90;86.80;;;;;;5022067;28;19926;-73
2023/10/11 04:40:22;;;;;;;;;;;11.90;86.80;;;;;;5020830;28;20379;-74
2023/10/11 04:43:05;;;;;;;;;;;11.80;86.80;;;;;;5022752;28;20020;-74
2023/10/11 04:45:45;;;;;;;;;;;11.80;86.80;;;;;;5022660;28;20312;-73
2023/10/11 04:48:19;;;;;;;;;;;11.70;86.80;;;;;;5021497;28;19925;-73
2023/10/11 04:50:54;;;;;;;;;;;11.70;86.80;;;;;;4996651;28;20277;-73
2023/10/11 04:53:32;;;;;;;;;;;11.70;86.90;;;;;;5021374;28;19947;-74
2023/10/11 04:56:51;;;;;;;;;;;11.70;86.80;;;;;;4990944;28;20277;-73
2023/10/11 04:59:06;;;;;;;;;;;11.70;86.70;;;;;;5001102;28;19935;-74
2023/10/11 05:01:58;;;;;;;;;;;11.70;86.60;;;;;;5019996;28;20024;-73
2023/10/11 05:04:33;;;;;;;;;;;11.70;86.60;;;;;;5019414;28;19925;-73
2023/10/11 05:07:09;;;;;;;;;;;11.60;86.50;;;;;;5022110;28;19932;-73
2023/10/11 05:09:52;;;;;;;;;;;11.60;86.60;;;;;;5020605;28;19960;-73
2023/10/11 05:12:26;;;;;;;;;;;11.60;86.50;;;;;;5019326;28;19930;-74
2023/10/11 05:15:07;;;;;;;;;;;11.60;86.60;;;;;;5021381;28;19929;-74
2023/10/11 05:17:41;;;;;;;;;;;11.60;86.60;;;;;;5020855;28;19925;-73
2023/10/11 05:20:37;;;;;;;;;;;11.60;86.60;;;;;;5021329;28;19933;-73
2023/10/11 05:23:16;;;;;;;;;;;11.60;86.60;;;;;;5021955;28;19925;-67
2023/10/11 05:25:58;;;;;;;;;;;11.50;86.50;;;;;;5020802;28;19973;-68
2023/10/11 05:28:44;;;;;;;;;;;11.60;86.60;;;;;;5020925;28;20389;-68
2023/10/11 05:31:22;;;;;;;;;;;11.50;86.60;;;;;;5020146;28;19929;-68
2023/10/11 05:34:29;;;;;;;;;;;11.40;86.70;;;;;;5021550;28;20299;-66
2023/10/11 05:51:05;;;;;;;;;;;11.50;86.60;;;;;;5021861;28;20427;-66
2023/10/11 05:53:40;;;;;;;;;;;11.50;86.50;;;;;;5021331;28;20380;-67
2023/10/11 05:56:20;;;;;;;;;;;11.50;86.60;;;;;;5021101;28;19932;-66
2023/10/11 05:58:54;;;;;;;;;;;11.50;86.70;;;;;;5020096;28;19925;-66
2023/10/11 06:01:28;;;;;;;;;;;11.40;86.80;;;;;;5020488;28;19940;-66
2023/10/11 06:04:03;;;;;;;;;;;11.40;87.00;;;;;;5017340;28;19940;-66
2023/10/11 06:06:39;;;;;;;;;;;11.40;87.20;;;;;;5020882;28;19975;-66
2023/10/11 06:09:17;;;;;;;;;;;11.40;87.30;;;;;;5025319;28;19933;-68
2023/10/11 06:11:50;;;;;;;;;;;11.30;87.60;;;;;;5005723;28;19929;-67
2023/10/11 06:14:23;;;;;;;;;;;11.40;87.80;;;;;;5013135;28;19948;-70
2023/10/11 06:16:57;;;;;;;;;;;11.40;87.90;;;;;;5026205;28;20012;-67
2023/10/11 06:19:31;;;;;;;;;;;11.40;88.10;;;;;;5024369;28;20019;-67
2023/10/11 06:22:10;;;;;;;;;;;11.40;88.20;;;;;;5023143;28;19925;-67
2023/10/11 06:24:44;;;;;;;;;;;11.40;88.30;;;;;;5025621;28;19933;-67
2023/10/11 06:30:10;;;;;;;;;;;11.50;88.50;;;;;;5023262;28;19944;-67
2023/10/11 06:32:43;;;;;;;;;;;11.60;88.50;;;;;;5023377;28;19925;-67
2023/10/11 06:35:23;;;;;;;;;;;11.60;88.50;;;;;;5024869;28;20320;-66
2023/10/11 06:37:58;;;;;;;;;;;11.60;88.60;;;;;;5006225;28;19961;-68
2023/10/11 06:40:38;;;;;;;;;;;11.70;88.60;;;;;;5004484;28;20447;-68
2023/10/11 06:43:12;;;;;;;;;;;11.70;88.60;;;;;;5005350;28;19926;-68
2023/10/11 06:45:49;;;;;;;;;;;11.70;88.70;;;;;;5005260;28;19926;-67
2023/10/11 06:48:25;;;;;;;;;;;11.70;88.70;;;;;;5004605;28;19940;-68
2023/10/11 06:50:59;;;;;;;;;;;11.80;88.60;;;;;;5005542;28;19973;-68
2023/10/11 06:53:35;;;;;;;;;;;11.90;88.60;;;;;;5018802;28;19938;-67
2023/10/11 06:56:13;;;;;;;;;;;11.90;88.60;;;;;;5006654;28;20097;-67
2023/10/11 06:58:47;;;;;;;;;;;11.90;88.80;;;;;;5003517;28;20056;-67
2023/10/11 07:01:21;;;;;;;;;;;12.00;89.00;;;;;;5021082;28;19995;-66
2023/10/11 07:03:55;;;;;;;;;;;12.00;89.20;;;;;;5022763;28;19932;-67
2023/10/11 07:06:29;;;;;;;;;;;12.00;89.30;;;;;;5023856;28;19948;-67
2023/10/11 07:09:05;;;;;;;;;;;12.20;89.30;;;;;;5024320;28;20008;-66
2023/10/11 07:11:43;;;;;;;;;;;12.20;89.10;;;;;;5023868;28;19925;-67
2023/10/11 07:14:28;;;;;;;;;;;12.20;89.30;;;;;;5025053;28;19941;-67
2023/10/11 07:17:01;;;;;;;;;;;12.20;89.00;;;;;;5011865;28;20020;-66
2023/10/11 07:19:36;;;;;;;;;;;12.30;89.20;;;;;;5024131;28;19929;-67
2023/10/11 07:22:14;;;;;;;;;;;12.20;89.20;;;;;;5024071;28;19930;-66
2023/10/11 07:24:55;;;;;;;;;;;12.20;89.30;;;;;;5024032;28;19932;-66
2023/10/11 07:27:37;;;;;;;;;;;12.20;89.50;;;;;;5022694;28;19933;-65
2023/10/11 07:30:16;;;;;;;;;;;12.20;89.50;;;;;;5023163;28;20389;-67
2023/10/11 07:32:50;;;;;;;;;;;12.20;89.60;;;;;;5024349;28;19941;-68
2023/10/11 07:35:27;;;;;;;;;;;12.20;89.60;;;;;;5022992;28;19933;-67
2023/10/11 07:38:01;;;;;;;;;;;12.30;89.20;;;;;;5024344;28;19947;-66
2023/10/11 07:40:45;;;;;;;;;;;12.30;89.10;;;;;;5023645;28;19934;-66
2023/10/11 07:43:19;;;;;;;;;;;12.20;88.90;;;;;;5024435;28;19936;-70
2023/10/11 07:45:54;;;;;;;;;;;12.30;88.80;;;;;;5011892;28;19932;-70
2023/10/11 07:48:32;;;;;;;;;;;12.30;88.60;;;;;;5019914;28;19931;-71
2023/10/11 07:51:09;;;;;;;;;;;12.40;88.60;;;;;;5022424;28;20423;-69
2023/10/11 07:53:44;;;;;;;;;;;12.40;88.50;;;;;;5023978;28;19925;-70
2023/10/11 07:56:24;;;;;;;;;;;12.40;88.30;;;;;;5023850;28;19979;-70
2023/10/11 07:58:58;;;;;;;;;;;12.40;88.20;;;;;;5024710;28;20327;-70
2023/10/11 08:01:31;;;;;;;;;;;12.40;88.20;;;;;;5022651;28;20292;-71
2023/10/11 08:04:08;;;;;;;;;;;12.50;88.10;;;;;;5008228;28;19933;-70
2023/10/11 08:06:41;;;;;;;;;;;12.50;88.20;;;;;;5022799;28;19925;-70
2023/10/11 08:09:19;;;;;;;;;;;12.50;88.50;;;;;;5022863;28;19929;-70
2023/10/11 08:11:56;;;;;;;;;;;12.60;88.90;;;;;;5015173;28;19932;-70
2023/10/11 08:14:29;;;;;;;;;;;12.70;89.00;;;;;;5022433;28;19925;-69
2023/10/11 08:17:10;;;;;;;;;;;12.80;88.90;;;;;;5023392;28;19933;-70
2023/10/11 08:19:44;;;;;;;;;;;12.90;89.20;;;;;;5022169;28;19925;-70
2023/10/11 08:22:14;;;;;;;;;;;13.10;89.10;;;;;;5021580;28;20381;-70
2023/10/11 08:24:49;;;;;;;;;;;13.20;89.30;;;;;;5023008;28;19949;-70
2023/10/11 08:27:27;;;;;;;;;;;13.30;89.20;;;;;;5022729;28;20012;-69
2023/10/11 08:30:09;;;;;;;;;;;13.40;89.40;;;;;;5017262;28;20016;-69
2023/10/11 08:32:43;;;;;;;;;;;13.60;89.50;;;;;;5022648;28;19936;-70
2023/10/11 08:35:17;;;;;;;;;;;13.70;89.50;;;;;;5023076;28;19933;-70
2023/10/11 08:37:52;;;;;;;;;;;13.80;89.80;;;;;;5020835;28;19972;-69
2023/10/11 08:40:29;;;;;;;;;;;14.00;89.80;;;;;;5016691;28;19929;-70
2023/10/11 08:43:09;;;;;;;;;;;14.10;89.50;;;;;;5021709;28;19995;-69
2023/10/11 08:45:48;;;;;;;;;;;14.20;89.40;;;;;;5023089;28;19940;-70
2023/10/11 08:48:24;;;;;;;;;;;14.40;89.30;;;;;;5023107;28;19929;-69
2023/10/11 08:50:57;;;;;;;;;;;14.60;88.90;;;;;;5002721;28;19952;-69
2023/10/11 08:53:31;;;;;;;;;;;14.70;89.20;;;;;;5002821;28;19956;-71
2023/10/11 08:56:04;;;;;;;;;;;14.80;88.90;;;;;;5002798;28;20442;-72
2023/10/11 08:58:47;;;;;;;;;;;14.90;88.20;;;;;;5002361;28;19930;-71
2023/10/11 09:01:24;;;;;;;;;;;15.10;87.90;;;;;;5003901;28;19932;-71
2023/10/11 09:04:11;;;;;;;;;;;15.20;87.90;;;;;;5002614;28;20366;-73
2023/10/11 09:06:45;;;;;;;;;;;15.30;88.10;;;;;;5023485;28;20368;-71
2023/10/11 09:09:32;;;;;;;;;;;15.40;87.30;;;;;;5021986;28;20372;-71
2023/10/11 09:12:24;;;;;;;;;;;15.60;86.70;;;;;;5001080;28;19930;-71
2023/10/11 09:15:00;;;;;;;;;;;15.70;86.40;;;;;;5003564;28;19929;-72
2023/10/11 09:17:38;;;;;;;;;;;15.90;86.10;;;;;;5003009;28;19925;-71
2023/10/11 09:20:23;;;;;;;;;;;16.10;85.90;;;;;;5003907;28;19925;-71
2023/10/11 09:23:00;;;;;;;;;;;16.20;85.60;;;;;;5001954;28;19926;-72
2023/10/11 09:25:47;;;;;;;;;;;16.30;85.40;;;;;;5002305;28;20282;-71
2023/10/11 09:28:22;;;;;;;;;;;16.50;84.80;;;;;;5002068;28;20017;-71
2023/10/11 09:31:11;;;;;;;;;;;16.60;84.50;;;;;;5000736;28;19933;-71
2023/10/11 09:33:50;;;;;;;;;;;16.60;84.20;;;;;;5001865;28;19926;-71
2023/10/11 09:36:24;;;;;;;;;;;16.80;84.10;;;;;;5002549;28;19932;-72
2023/10/11 09:38:59;;;;;;;;;;;16.80;83.90;;;;;;5002834;28;19929;-72
2023/10/11 09:41:38;;;;;;;;;;;16.90;83.60;;;;;;5002204;28;19930;-72
2023/10/11 09:44:14;;;;;;;;;;;17.00;84.00;;;;;;5001856;28;20377;-72
2023/10/11 09:46:49;;;;;;;;;;;17.10;83.90;;;;;;5012239;28;19976;-72
2023/10/11 09:49:25;;;;;;;;;;;17.10;83.90;;;;;;5000400;28;21225;-72
2023/10/11 09:52:16;;;;;;;;;;;17.20;83.60;;;;;;5016325;28;20297;-71
2023/10/11 09:54:56;;;;;;;;;;;17.30;83.50;;;;;;5002148;28;19961;-71
2023/10/11 09:57:33;;;;;;;;;;;17.30;83.90;;;;;;5022418;28;20355;-71
2023/10/11 10:00:14;;;;;;;;;;;17.40;83.80;;;;;;5021629;28;19929;-71
2023/10/11 10:02:51;;;;;;;;;;;17.50;83.60;;;;;;5020983;28;19929;-72
2023/10/11 10:05:30;;;;;;;;;;;17.60;83.10;;;;;;5021182;28;19929;-73
2023/10/11 10:08:14;;;;;;;;;;;17.70;83.20;;;;;;5023484;28;19925;-74
2023/10/11 10:10:53;;;;;;;;;;;17.90;82.50;;;;;;5020923;28;19935;-74
2023/10/11 10:13:28;;;;;;;;;;;17.90;82.20;;;;;;5021743;28;19925;-73
2023/10/11 10:16:01;;;;;;;;;;;18.00;81.50;;;;;;5021555;28;19929;-74
2023/10/11 10:18:39;;;;;;;;;;;18.00;81.60;;;;;;5021801;28;19933;-73
2023/10/11 10:21:17;;;;;;;;;;;18.10;81.40;;;;;;5020542;28;19999;-73
2023/10/11 10:23:51;;;;;;;;;;;18.10;81.80;;;;;;5020405;28;19995;-74
2023/10/11 10:26:26;;;;;;;;;;;18.10;81.50;;;;;;5020886;28;19925;-74
2023/10/11 10:29:00;;;;;;;;;;;18.10;81.40;;;;;;5022532;28;20302;-74
2023/10/11 10:31:33;;;;;;;;;;;18.20;81.20;;;;;;5022374;28;20014;-74
2023/10/11 10:34:29;;;;;;;;;;;18.30;81.00;;;;;;5020439;28;20024;-74
2023/10/11 10:37:07;;;;;;;;;;;18.30;81.00;;;;;;5021332;28;19925;-73
2023/10/11 10:40:07;;;;;;;;;;;18.40;81.00;;;;;;5022416;28;19944;-71
2023/10/11 10:42:45;;;;;;;;;;;18.60;80.20;;;;;;5019596;28;19935;-72
2023/10/11 10:45:25;;;;;;;;;;;18.60;79.80;;;;;;5020205;28;19929;-74
2023/10/11 10:48:10;;;;;;;;;;;18.70;79.60;;;;;;5021695;28;19932;-73
2023/10/11 10:50:54;;;;;;;;;;;18.70;79.30;;;;;;5007761;28;20288;-73
2023/10/11 10:53:50;;;;;;;;;;;18.70;78.60;;;;;;5021027;28;19964;-73
2023/10/11 10:56:24;;;;;;;;;;;19.00;78.10;;;;;;5007463;28;20015;-75
2023/10/11 10:59:03;;;;;;;;;;;19.10;77.50;;;;;;5021782;28;20031;-73
2023/10/11 11:01:39;;;;;;;;;;;19.20;76.80;;;;;;5012246;28;19937;-74
2023/10/11 11:04:12;;;;;;;;;;;19.10;76.50;;;;;;5023896;28;19934;-73
2023/10/11 11:06:54;;;;;;;;;;;19.10;77.10;;;;;;5023895;28;19929;-74
2023/10/11 11:09:27;;;;;;;;;;;19.20;77.00;;;;;;5024707;28;20008;-73
2023/10/11 11:12:14;;;;;;;;;;;19.20;76.80;;;;;;5004076;28;20388;-73
2023/10/11 11:14:54;;;;;;;;;;;19.20;77.00;;;;;;5004165;28;19929;-73
2023/10/11 11:17:43;;;;;;;;;;;19.30;76.40;;;;;;5003590;28;19929;-74
2023/10/11 11:20:27;;;;;;;;;;;19.30;76.40;;;;;;5002209;28;19925;-73
2023/10/11 11:23:01;;;;;;;;;;;19.40;75.70;;;;;;5024050;28;19929;-72
2023/10/11 11:25:34;;;;;;;;;;;19.60;74.80;;;;;;5018463;28;19933;-73
2023/10/11 11:28:24;;;;;;;;;;;19.70;74.30;;;;;;5024413;28;19972;-72
2023/10/11 11:31:10;;;;;;;;;;;19.60;74.20;;;;;;5023984;28;19932;-74
2023/10/11 11:34:05;;;;;;;;;;;19.70;74.40;;;;;;5023002;28;19932;-70
2023/10/11 11:36:42;;;;;;;;;;;19.60;74.60;;;;;;5012442;28;20292;-73
2023/10/11 11:39:26;;;;;;;;;;;19.60;74.60;;;;;;5023534;28;20407;-73
2023/10/11 11:42:00;;;;;;;;;;;19.60;74.20;;;;;;4994976;28;19929;-73
2023/10/11 11:44:32;;;;;;;;;;;19.70;74.40;;;;;;4994606;28;19979;-72
2023/10/11 11:47:07;;;;;;;;;;;19.60;74.50;;;;;;5011335;28;19933;-73
2023/10/11 11:49:39;;;;;;;;;;;19.60;74.20;;;;;;5021944;28;19925;-73
2023/10/11 11:52:16;;;;;;;;;;;19.60;74.40;;;;;;5021075;28;19933;-73
2023/10/11 11:54:49;;;;;;;;;;;19.60;74.70;;;;;;5025224;28;19997;-71
2023/10/11 11:57:29;;;;;;;;;;;19.70;74.20;;;;;;5025099;28;19926;-73
2023/10/11 12:00:19;;;;;;;;;;;19.70;74.10;;;;;;5014888;28;19925;-73
2023/10/11 12:02:52;;;;;;;;;;;19.70;74.50;;;;;;5023355;28;19925;-72
2023/10/11 12:05:27;;;;;;;;;;;19.70;74.40;;;;;;5006158;28;19926;-74
2023/10/11 12:08:00;;;;;;;;;;;19.60;74.60;;;;;;5002400;28;19930;-73
2023/10/11 12:10:27;;;;;;;;;;;19.60;74.70;;;;;;5001670;28;20266;-72
2023/10/11 12:13:07;;;;;;;;;;;19.70;74.60;;;;;;5001551;28;20472;-73
2023/10/11 12:15:41;;;;;;;;;;;19.70;74.50;;;;;;5002433;28;20008;-72
2023/10/11 12:18:15;;;;;;;;;;;19.70;74.80;;;;;;5004689;28;19980;-73
2023/10/11 12:20:48;;;;;;;;;;;19.80;74.60;;;;;;5004304;28;19930;-72
2023/10/11 12:23:21;;;;;;;;;;;19.70;74.30;;;;;;5004503;28;20019;-68
2023/10/11 12:25:56;;;;;;;;;;;19.60;75.00;;;;;;5003786;28;19939;-66
2023/10/11 12:28:32;;;;;;;;;;;19.70;74.70;;;;;;5002562;28;19930;-68
2023/10/11 12:31:05;;;;;;;;;;;19.70;75.10;;;;;;5004270;28;20017;-68
2023/10/11 12:33:39;;;;;;;;;;;19.70;74.50;;;;;;5003669;28;19930;-68
2023/10/11 12:36:14;;;;;;;;;;;19.70;74.40;;;;;;4995881;28;20911;-67
2023/10/11 12:38:48;;;;;;;;;;;19.90;73.90;;;;;;5025035;28;19926;-68
2023/10/11 12:41:22;;;;;;;;;;;19.80;74.00;;;;;;5023038;28;19932;-67
2023/10/11 12:43:56;;;;;;;;;;;19.90;73.30;;;;;;5022758;28;20024;-66
2023/10/11 12:46:29;;;;;;;;;;;20.00;73.10;;;;;;5022924;28;19952;-67
2023/10/11 12:49:12;;;;;;;;;;;20.10;72.80;;;;;;5023790;28;20017;-68
2023/10/11 12:51:47;;;;;;;;;;;20.30;70.90;;;;;;5022154;28;20388;-68
2023/10/11 12:54:20;;;;;;;;;;;20.20;71.30;;;;;;5022448;28;19929;-67
2023/10/11 12:56:54;;;;;;;;;;;20.10;71.70;;;;;;5023089;28;19979;-67
2023/10/11 12:59:22;;;;;;;;;;;20.10;71.10;;;;;;5020585;28;20305;-69
2023/10/11 13:01:57;;;;;;;;;;;20.20;70.20;;;;;;5021784;28;19976;-67
2023/10/11 13:04:31;;;;;;;;;;;20.30;69.60;;;;;;5022219;28;20393;-67
2023/10/11 13:07:13;;;;;;;;;;;20.50;69.40;;;;;;5021764;28;19940;-66
2023/10/11 13:09:46;;;;;;;;;;;20.40;69.70;;;;;;5021496;28;19932;-67
2023/10/11 13:12:22;;;;;;;;;;;20.30;69.90;;;;;;5022527;28;19932;-68
2023/10/11 13:14:55;;;;;;;;;;;20.40;69.60;;;;;;5010673;28;19929;-67
2023/10/11 13:17:28;;;;;;;;;;;20.30;70.30;;;;;;5009833;28;20008;-67
2023/10/11 13:20:08;;;;;;;;;;;20.20;70.80;;;;;;5018184;28;19932;-67
2023/10/11 13:22:42;;;;;;;;;;;20.20;70.50;;;;;;5003129;28;19947;-67
2023/10/11 13:25:23;;;;;;;;;;;20.10;71.20;;;;;;5020481;28;19948;-67
2023/10/11 13:28:03;;;;;;;;;;;20.00;72.00;;;;;;5020862;28;19981;-68
2023/10/11 13:30:38;;;;;;;;;;;20.00;72.50;;;;;;5020666;28;20016;-68
2023/10/11 13:33:12;;;;;;;;;;;19.90;72.50;;;;;;5021152;28;19937;-67
2023/10/11 13:35:39;;;;;;;;;;;19.90;72.70;;;;;;5020107;28;19929;-68
2023/10/11 13:38:17;;;;;;;;;;;20.00;72.60;;;;;;5020841;28;19940;-68
2023/10/11 13:40:56;;;;;;;;;;;20.00;72.50;;;;;;5011374;28;19925;-68
2023/10/11 13:43:37;;;;;;;;;;;20.10;71.90;;;;;;5010994;28;19933;-68
2023/10/11 13:46:10;;;;;;;;;;;20.20;71.80;;;;;;5020468;28;20024;-68
2023/10/11 13:48:47;;;;;;;;;;;20.10;71.90;;;;;;5008737;28;20014;-67
2023/10/11 13:51:28;;;;;;;;;;;20.20;72.30;;;;;;5004741;28;20315;-67
2023/10/11 13:54:17;;;;;;;;;;;20.20;72.40;;;;;;5002816;28;19926;-68
2023/10/11 13:56:50;;;;;;;;;;;20.20;72.20;;;;;;5000699;28;20818;-69
2023/10/11 13:59:24;;;;;;;;;;;20.20;72.30;;;;;;5001592;28;20759;-68
2023/10/11 14:02:03;;;;;;;;;;;20.20;72.30;;;;;;5001276;28;19926;-66
2023/10/11 14:04:49;;;;;;;;;;;20.10;72.60;;;;;;4999897;28;19988;-67
2023/10/11 14:07:27;;;;;;;;;;;20.20;72.90;;;;;;5001733;28;19925;-68
2023/10/11 14:10:13;;;;;;;;;;;20.10;73.40;;;;;;5000227;28;19977;-68
2023/10/11 14:12:48;;;;;;;;;;;20.00;73.60;;;;;;5001291;28;19926;-67
2023/10/11 14:15:24;;;;;;;;;;;20.00;73.80;;;;;;5001352;28;20294;-68
2023/10/11 14:17:51;;;;;;;;;;;20.10;74.00;;;;;;5000331;28;19930;-68
2023/10/11 14:20:30;;;;;;;;;;;20.10;74.10;;;;;;5001518;28;19933;-68
2023/10/11 14:23:05;;;;;;;;;;;20.00;74.40;;;;;;5002106;28;19930;-67
2023/10/11 14:25:41;;;;;;;;;;;19.90;74.60;;;;;;5002135;28;19925;-69
2023/10/11 14:28:15;;;;;;;;;;;19.90;75.20;;;;;;5015276;28;19937;-68
2023/10/11 14:30:50;;;;;;;;;;;19.90;75.00;;;;;;5005084;28;20389;-67
2023/10/11 14:33:23;;;;;;;;;;;20.00;75.00;;;;;;5022386;28;20369;-67
2023/10/11 14:35:58;;;;;;;;;;;20.00;74.80;;;;;;5024943;28;19933;-68
2023/10/11 14:38:31;;;;;;;;;;;20.10;74.70;;;;;;5023322;28;19925;-67
2023/10/11 14:41:08;;;;;;;;;;;20.10;74.90;;;;;;5024672;28;20376;-68
2023/10/11 14:43:41;;;;;;;;;;;20.00;75.20;;;;;;5023469;28;19929;-68
2023/10/11 14:46:19;;;;;;;;;;;20.00;74.70;;;;;;5023313;28;20024;-68
2023/10/11 14:48:52;;;;;;;;;;;20.00;74.30;;;;;;5024635;28;20387;-67
2023/10/11 14:51:25;;;;;;;;;;;20.10;73.90;;;;;;5023687;28;19926;-68
2023/10/11 14:53:58;;;;;;;;;;;20.20;74.20;;;;;;5025685;28;20377;-67
2023/10/11 14:56:32;;;;;;;;;;;20.10;73.90;;;;;;5024255;28;19925;-67
2023/10/11 14:59:01;;;;;;;;;;;20.10;74.00;;;;;;5023707;28;19952;-67
2023/10/11 15:01:35;;;;;;;;;;;20.10;73.80;;;;;;5024773;28;19933;-67
2023/10/11 15:04:11;;;;;;;;;;;20.10;73.50;;;;;;5025020;28;19929;-67
2023/10/11 15:06:46;;;;;;;;;;;20.20;73.30;;;;;;5024142;28;20369;-68
2023/10/11 15:09:19;;;;;;;;;;;20.10;73.50;;;;;;5019937;28;19925;-67
2023/10/11 15:11:52;;;;;;;;;;;20.20;73.00;;;;;;5008069;28;19925;-67
2023/10/11 15:14:25;;;;;;;;;;;20.10;72.50;;;;;;5023249;28;19933;-67
2023/10/11 15:17:01;;;;;;;;;;;20.10;73.10;;;;;;5024219;28;19929;-67
2023/10/11 15:19:35;;;;;;;;;;;20.10;73.50;;;;;;5023419;28;19925;-67
2023/10/11 15:22:08;;;;;;;;;;;20.10;72.90;;;;;;5024747;28;19929;-68
2023/10/11 15:24:42;;;;;;;;;;;20.10;73.40;;;;;;5024975;28;19983;-65
2023/10/11 15:27:16;;;;;;;;;;;20.10;73.20;;;;;;5024641;28;19933;-67
2023/10/11 15:29:44;;;;;;;;;;;19.90;73.30;;;;;;5023722;28;24050;-67
2023/10/11 15:32:25;;;;;;;;;;;19.90;73.10;;;;;;5024454;28;20029;-68